Watch Hill, Rhode Island
Current Conditions -  °F | °C
As of 5:53 PM on Friday 28 Nov 2014 (Local Time) from KWST Reporting Station
Broken Clouds Broken Clouds  
Wind Chill: 26°   Ceiling: 5000
Heat Index: 32°   Visibility: 10mi
Dew Point: 17°   Wind: 6mph
Humidity: 54%   Direction: 310°NW
Pressure: 30.18"   Gusts: NA
Location:  41.3616°N, 71.7933°W
Report Text: KWST 282253Z AUTO 31005KT 10SM SCT045 BKN050 00/M08 A3018 RMK AO2 SLP220 T00001083
Loading
Personal Weather Stations






























Interactive Weather Map New forecast layout! Learn more

10-Day Weather Forecast

Advertisements
Track Severe Weather on mobile